Time;durP1;ratioP1;P1;durP2;ratioP2;P2;SDS_P1;SDS_P2;PMS_P1;PMS_P2;Temp;Humidity;BMP_temperature;BMP_pressure;BME280_temperature;BME280_humidity;BME280_pressure;Samples;Min_cycle;Max_cycle;Signal;HPM_P1;HPM_P2
2021/12/09 00:02:08;;;;;;;74.03;31.93;;;;;;;-3.07;100.00;100048.55;5146903;57;1141356;-78
2021/12/09 00:07:14;;;;;;;78.23;31.77;;;;;;;-3.08;100.00;100048.16;5145304;57;1139495;-83
2021/12/09 00:12:23;;;;;;;87.43;33.87;;;;;;;-3.10;100.00;100044.77;5145502;57;1139376;-80
2021/12/09 00:17:28;;;;;;;76.90;31.70;;;;;;;-3.05;100.00;100055.80;5170192;56;1143151;-82
2021/12/09 00:22:33;;;;;;;51.15;19.20;;;;;;;-3.01;100.00;100052.23;5210968;56;1143361;-82
2021/12/09 00:27:39;;;;;;;91.97;33.33;;;;;;;-3.00;100.00;100042.29;5210889;56;1143198;-78
2021/12/09 00:32:45;;;;;;;63.93;24.90;;;;;;;-3.02;100.00;100042.34;5210883;56;1143256;-82
2021/12/09 00:38:00;;;;;;;73.07;29.63;;;;;;;-3.01;100.00;100048.36;5210693;56;1143458;-79
2021/12/09 00:42:59;;;;;;;74.77;30.60;;;;;;;-3.01;100.00;100047.06;5209179;56;1143367;-77
2021/12/09 00:48:05;;;;;;;68.50;27.20;;;;;;;-3.02;100.00;100051.83;5210588;56;1143210;-78
2021/12/09 00:53:11;;;;;;;80.77;30.30;;;;;;;-3.02;100.00;100057.86;5210742;56;1143480;-80
2021/12/09 00:58:17;;;;;;;80.17;31.00;;;;;;;-3.03;100.00;100042.38;5210540;56;1143185;-81
2021/12/09 01:03:23;;;;;;;84.20;32.07;;;;;;;-3.02;100.00;100055.71;5210636;56;1143176;-78
2021/12/09 01:08:28;;;;;;;89.00;33.60;;;;;;;-3.01;100.00;100040.59;5210506;56;1143294;-79
2021/12/09 01:13:35;;;;;;;89.40;35.13;;;;;;;-3.01;100.00;100049.20;5210438;56;1143547;-81
2021/12/09 01:18:42;;;;;;;96.07;37.03;;;;;;;-2.98;100.00;100050.41;5169837;56;1143435;-83
2021/12/09 01:23:48;;;;;;;89.50;37.33;;;;;;;-2.95;100.00;100055.50;5144878;57;1143407;-83
2021/12/09 01:28:59;;;;;;;90.93;36.27;;;;;;;-2.94;100.00;100048.59;5144988;57;1143308;-80
2021/12/09 01:34:03;;;;;;;96.30;38.10;;;;;;;-2.97;100.00;100028.83;5145860;56;1143338;-79
2021/12/09 01:39:11;;;;;;;82.20;33.65;;;;;;;-3.00;100.00;100019.01;5153589;57;1143295;-80
2021/12/09 01:44:17;;;;;;;97.50;35.30;;;;;;;-3.00;100.00;100020.30;5153808;57;1143607;-81
2021/12/09 01:49:22;;;;;;;87.40;35.73;;;;;;;-3.02;100.00;100013.03;5153914;57;1143169;-81
2021/12/09 01:54:28;;;;;;;89.87;34.20;;;;;;;-3.00;100.00;100009.51;5153884;57;1143218;-78
2021/12/09 01:59:34;;;;;;;85.30;34.43;;;;;;;-2.98;100.00;100009.47;5153708;57;1143221;-79
2021/12/09 02:04:40;;;;;;;81.40;34.10;;;;;;;-2.96;100.00;99989.58;5153828;57;1143278;-82
2021/12/09 02:09:46;;;;;;;72.60;29.90;;;;;;;-2.99;100.00;99981.91;5153937;57;1141224;-79
2021/12/09 02:14:53;;;;;;;81.30;31.70;;;;;;;-3.03;100.00;99973.38;5153670;57;1141095;-84
2021/12/09 02:20:02;;;;;;;90.57;37.70;;;;;;;-3.06;100.00;99963.60;5230525;56;1141330;-81
2021/12/09 02:25:08;;;;;;;87.07;35.97;;;;;;;-3.09;100.00;99977.47;5240481;56;1141407;-82
2021/12/09 02:30:15;;;;;;;73.78;28.27;;;;;;;-3.10;100.00;99974.92;5240232;56;1141075;-80
2021/12/09 02:35:21;;;;;;;98.60;41.20;;;;;;;-3.10;100.00;99965.88;5251721;56;1141482;-79
2021/12/09 02:40:27;;;;;;;100.43;38.57;;;;;;;-3.09;100.00;99973.59;5240331;56;1141126;-82
2021/12/09 02:45:33;;;;;;;85.17;34.73;;;;;;;-3.09;100.00;99964.98;5240513;56;1143312;-80
2021/12/09 02:50:39;;;;;;;94.20;37.10;;;;;;;-3.11;100.00;99972.78;5241236;56;1141075;-80
2021/12/09 02:55:47;;;;;;;83.20;32.80;;;;;;;-3.15;100.00;99975.06;5242048;56;1141444;-82
2021/12/09 03:01:12;;;;;;;93.53;35.53;;;;;;;-3.13;100.00;99983.63;5205890;56;1141301;-83
2021/12/09 03:06:16;;;;;;;82.95;32.17;;;;;;;-3.11;100.00;99974.52;5242286;56;1141073;-79
2021/12/09 03:11:24;;;;;;;84.63;33.30;;;;;;;-3.12;100.00;99987.91;5242089;56;1139052;-81
2021/12/09 03:16:30;;;;;;;87.15;34.95;;;;;;;-3.12;100.00;99999.54;5225271;56;1139019;-80
2021/12/09 03:21:43;;;;;;;89.93;35.13;;;;;;;-3.11;100.00;99999.09;5155303;57;1139121;-79
2021/12/09 03:26:59;;;;;;;85.38;28.83;;;;;;;-3.09;100.00;99998.16;5155404;57;1139026;-76
2021/12/09 03:32:05;;;;;;;88.80;33.63;;;;;;;-3.06;100.00;99992.05;5154723;57;1139031;-82
2021/12/09 03:37:16;;;;;;;95.03;34.07;;;;;;;-3.09;100.00;99985.67;5143215;57;1139071;-80
2021/12/09 03:42:27;;;;;;;85.35;32.78;;;;;;;-3.09;100.00;99985.23;5120025;57;1139142;-82
2021/12/09 03:47:33;;;;;;;88.23;34.63;;;;;;;-3.08;100.00;99964.09;5059616;57;1139256;-83
2021/12/09 03:52:39;;;;;;;80.77;31.50;;;;;;;-3.05;100.00;99969.14;5113946;57;1139156;-82
2021/12/09 03:57:45;;;;;;;88.03;32.30;;;;;;;-3.03;100.00;99982.88;5061267;57;1139065;-79
2021/12/09 04:02:51;;;;;;;90.38;35.85;;;;;;;-3.02;100.00;99985.42;5073533;57;1139147;-79
2021/12/09 04:07:58;;;;;;;91.08;34.75;;;;;;;-3.03;100.00;99993.23;5150874;56;1139025;-79
2021/12/09 04:13:04;;;;;;;84.83;33.33;;;;;;;-2.99;100.00;99992.25;5166364;56;1136901;-79
2021/12/09 04:18:09;;;;;;;83.17;35.53;;;;;;;-3.01;100.00;99995.33;5152054;56;1137076;-82
2021/12/09 04:23:17;;;;;;;93.13;36.20;;;;;;;-2.99;100.00;99988.37;5105360;57;1141125;-78
2021/12/09 04:28:22;;;;;;;89.00;33.73;;;;;;;-2.95;100.00;99971.87;5131447;57;1141029;-79
2021/12/09 04:33:34;;;;;;;83.70;34.17;;;;;;;-2.89;100.00;99966.03;5132812;56;1141421;-77
2021/12/09 04:38:36;;;;;;;82.23;32.23;;;;;;;-2.84;100.00;99967.19;5156479;57;1141396;-78
2021/12/09 04:43:43;;;;;;;74.47;32.90;;;;;;;-2.83;100.00;99981.83;5121967;57;1141144;-78
2021/12/09 04:48:48;;;;;;;77.53;30.77;;;;;;;-2.85;100.00;99975.40;5122208;57;1140990;-80
2021/12/09 04:53:55;;;;;;;56.30;23.20;;;;;;;-2.89;100.00;99956.13;5122068;57;1141289;-79
2021/12/09 04:59:02;;;;;;;75.73;32.07;;;;;;;-2.91;100.00;99960.09;5122047;57;1140728;-82
2021/12/09 05:04:08;;;;;;;75.42;31.17;;;;;;;-2.91;100.00;99957.50;5120862;57;1141319;-78
2021/12/09 05:09:17;;;;;;;76.83;30.27;;;;;;;-2.88;100.00;99978.08;5120869;57;1141278;-79
2021/12/09 05:14:24;;;;;;;76.20;33.03;;;;;;;-2.83;100.00;99974.06;5120536;57;1141471;-79
2021/12/09 05:19:30;;;;;;;81.17;32.80;;;;;;;-2.80;100.00;99976.55;5164517;57;1141032;-82
2021/12/09 05:24:37;;;;;;;79.87;32.40;;;;;;;-2.80;100.00;99973.97;5090778;58;1141147;-79
2021/12/09 05:29:44;;;;;;;77.33;33.27;;;;;;;-2.80;100.00;99966.20;5175373;56;1141599;-79
2021/12/09 05:34:51;;;;;;;82.53;32.23;;;;;;;-2.79;100.00;99972.23;5091046;57;1141235;-79
2021/12/09 05:40:00;;;;;;;100.27;37.33;;;;;;;-2.78;100.00;99970.05;5193149;56;1141447;-81
2021/12/09 05:45:06;;;;;;;87.17;30.27;;;;;;;-2.77;100.00;99976.47;5124746;57;1143148;-79
2021/12/09 05:50:13;;;;;;;127.00;62.97;;;;;;;-2.80;100.00;99979.14;5210839;56;1141063;-82
2021/12/09 05:55:20;;;;;;;75.40;31.67;;;;;;;-2.80;100.00;99988.20;5124668;57;1143453;-80
2021/12/09 06:00:26;;;;;;;68.53;28.80;;;;;;;-2.80;100.00;100004.17;5210670;56;1141048;-81
2021/12/09 06:05:32;;;;;;;83.23;33.30;;;;;;;-2.86;100.00;100018.98;5124785;57;1143245;-79
2021/12/09 06:10:38;;;;;;;75.53;30.37;;;;;;;-2.88;100.00;100032.41;5210484;56;1143243;-78
2021/12/09 06:15:44;;;;;;;75.50;31.37;;;;;;;-2.90;100.00;100034.20;5122799;57;1143595;-81
2021/12/09 06:20:50;;;;;;;77.73;34.13;;;;;;;-2.86;100.00;100031.08;5112845;57;1143598;-82
2021/12/09 06:25:56;;;;;;;77.77;32.83;;;;;;;-2.81;100.00;100021.44;5108714;57;1143286;-80
2021/12/09 06:31:02;;;;;;;107.37;46.40;;;;;;;-2.75;100.00;100031.58;5111998;57;1143673;-78
2021/12/09 06:36:08;;;;;;;107.77;50.63;;;;;;;-2.75;100.00;100025.11;5067968;58;1145343;-80
2021/12/09 06:41:14;;;;;;;88.85;35.98;;;;;;;-2.74;100.00;100011.28;5112365;57;1145329;-80
2021/12/09 06:46:20;;;;;;;130.00;60.93;;;;;;;-2.68;100.00;100012.84;5066471;58;1143764;-79
2021/12/09 06:51:27;;;;;;;136.73;66.20;;;;;;;-2.67;100.00;100017.13;5151534;57;1145874;-82
2021/12/09 06:56:32;;;;;;;92.83;38.13;;;;;;;-2.67;100.00;100008.91;5151838;57;1145867;-78
2021/12/09 07:01:39;;;;;;;90.27;35.43;;;;;;;-2.67;100.00;100008.91;5151551;57;1143090;-81
2021/12/09 07:06:45;;;;;;;92.43;36.83;;;;;;;-2.67;100.00;99997.71;5151373;57;1143507;-79
2021/12/09 07:11:52;;;;;;;90.17;35.40;;;;;;;-2.68;100.00;99969.69;5162669;57;1141171;-80
2021/12/09 07:16:58;;;;;;;90.93;37.60;;;;;;;-2.68;100.00;99983.08;5179058;56;1141034;-81
2021/12/09 07:22:05;;;;;;;71.17;26.60;;;;;;;-2.70;100.00;99985.70;5237681;56;1141198;-77
2021/12/09 07:27:10;;;;;;;101.33;43.77;;;;;;;-2.72;100.00;99987.94;5238123;56;1139297;-80
2021/12/09 07:32:16;;;;;;;76.33;30.02;;;;;;;-2.72;100.00;99966.80;5244481;56;1141439;-81
2021/12/09 07:37:22;;;;;;;99.57;45.93;;;;;;;-2.74;100.00;99967.73;5249550;56;1139267;-80
2021/12/09 07:42:28;;;;;;;94.90;38.87;;;;;;;-2.72;100.00;99976.30;5242481;56;1139070;-78
2021/12/09 07:47:35;;;;;;;101.30;36.53;;;;;;;-2.74;100.00;99995.75;5237636;56;1139486;-78
2021/12/09 07:52:42;;;;;;;93.30;35.77;;;;;;;-2.72;100.00;100018.55;5237697;56;1141198;-79
2021/12/09 07:57:47;;;;;;;120.40;51.37;;;;;;;-2.74;100.00;100024.22;5236687;56;1141291;-78
2021/12/09 08:02:55;;;;;;;104.47;42.63;;;;;;;-2.75;100.00;100004.41;5200381;56;1143376;-79
2021/12/09 08:08:08;;;;;;;99.72;44.70;;;;;;;-2.73;100.00;100014.27;5082103;56;1143278;-79
2021/12/09 08:13:23;;;;;;;82.07;34.33;;;;;;;-2.67;100.00;100019.71;5064282;58;1141228;-79
2021/12/09 08:18:33;;;;;;;94.27;36.27;;;;;;;-2.67;100.00;100031.36;5102767;57;1141150;-80
2021/12/09 08:23:38;;;;;;;89.40;37.77;;;;;;;-2.68;100.00;100034.39;5138404;57;1141208;-81
2021/12/09 08:28:43;;;;;;;156.40;64.43;;;;;;;-2.68;100.00;100040.02;5201030;56;1141602;-80
2021/12/09 08:33:50;;;;;;;229.17;96.40;;;;;;;-2.64;100.00;100051.53;5232608;56;1143374;-80
2021/12/09 08:38:55;;;;;;;141.70;55.93;;;;;;;-2.58;100.00;100052.61;5167520;56;1141102;-80
2021/12/09 08:44:01;;;;;;;90.53;38.57;;;;;;;-2.59;100.00;100033.24;5104347;57;1141155;-81
2021/12/09 08:49:08;;;;;;;104.17;42.25;;;;;;;-2.58;100.00;100038.82;5123856;57;1143165;-81
2021/12/09 08:54:15;;;;;;;105.43;40.70;;;;;;;-2.55;100.00;100059.44;5122322;57;1145297;-80
2021/12/09 08:59:24;;;;;;;99.67;40.27;;;;;;;-2.55;100.00;100038.73;5107218;57;1145413;-79
2021/12/09 09:04:30;;;;;;;323.50;115.60;;;;;;;-2.53;100.00;100040.83;5112170;57;1143206;-81
2021/12/09 09:09:38;;;;;;;270.87;113.60;;;;;;;-2.49;100.00;100035.95;5106206;57;1147701;-82
2021/12/09 09:14:44;;;;;;;96.83;38.83;;;;;;;-2.44;100.00;100026.76;5107584;57;1147503;-82
2021/12/09 09:19:50;;;;;;;91.90;37.95;;;;;;;-2.42;100.00;100034.84;5112149;57;1143250;-81
2021/12/09 09:24:56;;;;;;;82.90;32.83;;;;;;;-2.45;100.00;100041.45;5102193;57;1143284;-81
2021/12/09 09:30:03;;;;;;;99.43;40.57;;;;;;;-2.47;100.00;100054.03;5119700;57;1143229;-80
2021/12/09 09:35:10;;;;;;;127.83;54.57;;;;;;;-2.49;100.00;100034.66;5112460;57;1143169;-80
2021/12/09 09:40:27;;;;;;;95.63;39.23;;;;;;;-2.46;100.00;100029.84;5112851;57;1145232;-81
2021/12/09 09:45:29;;;;;;;111.67;45.90;;;;;;;-2.45;100.00;100025.91;5148533;56;1143264;-80
2021/12/09 09:50:35;;;;;;;94.67;38.93;;;;;;;-2.43;100.00;100027.97;5155411;57;1145311;-80
2021/12/09 09:55:41;;;;;;;115.20;45.03;;;;;;;-2.42;100.00;100026.23;5152264;57;1143181;-80
2021/12/09 10:00:47;;;;;;;102.83;42.83;;;;;;;-2.41;100.00;100023.59;5156070;56;1145366;-80
2021/12/09 10:05:57;;;;;;;86.03;37.87;;;;;;;-2.38;100.00;100022.20;5185540;56;1145306;-80
2021/12/09 10:11:02;;;;;;;109.97;43.70;;;;;;;-2.38;100.00;100007.12;5180170;56;1143199;-80
2021/12/09 10:16:21;;;;;;;84.90;36.07;;;;;;;-2.37;100.00;100001.05;5177086;56;1145293;-81
2021/12/09 10:21:30;;;;;;;112.10;43.47;;;;;;;-2.33;100.00;99993.13;5150340;57;1143327;-80
2021/12/09 10:26:44;;;;;;;103.27;42.00;;;;;;;-2.31;100.00;99982.28;5148352;57;1143348;-80
2021/12/09 10:31:59;;;;;;;94.07;40.37;;;;;;;-2.24;100.00;99985.48;5160935;56;1143437;-80
2021/12/09 10:37:25;;;;;;;94.57;45.00;;;;;;;-2.24;100.00;99993.26;5179489;56;1141075;-80
2021/12/09 10:42:37;;;;;;;89.97;38.93;;;;;;;-2.22;100.00;99974.62;5114556;56;1141226;-80
2021/12/09 10:48:20;;;;;;;298.60;128.00;;;;;;;-2.17;100.00;99956.75;5068305;58;1141261;-78
2021/12/09 10:53:33;;;;;;;292.30;113.37;;;;;;;-2.10;100.00;99943.56;4988278;58;1143223;-80
2021/12/09 10:58:33;;;;;;;105.17;44.90;;;;;;;-2.03;100.00;99927.77;4985032;59;1143309;-80
2021/12/09 11:03:57;;;;;;;100.47;41.68;;;;;;;-1.98;100.00;99935.34;5067461;58;1141216;-79
2021/12/09 11:09:05;;;;;;;97.63;42.23;;;;;;;-1.93;100.00;99949.84;5058698;58;1141336;-78
2021/12/09 11:14:17;;;;;;;91.40;39.83;;;;;;;-1.92;100.00;99960.61;5146639;57;1139058;-81
2021/12/09 11:19:36;;;;;;;108.40;43.03;;;;;;;-1.96;100.00;99956.88;5206874;56;1139065;-80
2021/12/09 11:24:42;;;;;;;100.23;43.63;;;;;;;-1.90;100.00;99961.41;5211776;56;1139213;-80
2021/12/09 11:29:52;;;;;;;99.57;41.03;;;;;;;-1.90;100.00;99966.59;5166610;56;1143240;-81
2021/12/09 11:35:18;;;;;;;96.67;41.03;;;;;;;-1.92;100.00;99964.95;5070254;58;1141160;-81
2021/12/09 11:40:47;;;;;;;99.83;42.80;;;;;;;-1.89;100.00;99958.36;5070360;58;1141062;-81
2021/12/09 11:45:52;;;;;;;101.97;42.73;;;;;;;-1.86;100.00;99935.78;5066998;58;1141153;-81
2021/12/09 11:50:58;;;;;;;99.57;42.27;;;;;;;-1.85;100.00;99943.95;5063150;58;1143316;-81
2021/12/09 11:56:11;;;;;;;98.20;42.33;;;;;;;-1.83;100.00;99944.72;5079529;57;1141176;-81
2021/12/09 12:07:06;;;;;;;105.47;45.90;;;;;;;-1.76;100.00;99936.28;5069797;58;1143233;-81
2021/12/09 12:11:57;;;;;;;93.60;41.03;;;;;;;-1.73;100.00;99922.37;5064045;58;1143325;-81
2021/12/09 12:17:24;;;;;;;104.00;41.37;;;;;;;-1.74;100.00;99929.75;5096546;57;1141237;-80
2021/12/09 12:22:53;;;;;;;104.63;43.43;;;;;;;-1.73;100.00;99913.30;5152075;57;1143205;-80
2021/12/09 12:28:13;;;;;;;99.77;40.80;;;;;;;-1.68;100.00;99930.83;5154634;57;1143280;-81
2021/12/09 12:43:50;;;;;;;95.23;42.10;;;;;;;-1.62;100.00;99916.33;5109500;57;1139433;-80
2021/12/09 12:49:07;;;;;;;123.90;49.47;;;;;;;-1.63;100.00;99906.86;5042574;58;1139140;-80
2021/12/09 12:59:41;;;;;;;99.73;41.87;;;;;;;-1.59;100.00;99914.47;5110271;57;1139332;-79
2021/12/09 13:16:37;;;;;;;97.40;38.73;;;;;;;-1.59;100.00;99911.03;5142287;57;1139041;-81
2021/12/09 13:21:59;;;;;;;92.80;42.00;;;;;;;-1.55;100.00;99930.31;5147585;56;1141080;-80
2021/12/09 13:54:26;;;;;;;114.43;48.67;;;;;;;-1.47;100.00;99911.41;5065659;58;1141261;-80
2021/12/09 13:59:35;;;;;;;95.62;43.00;;;;;;;-1.46;100.00;99923.47;5146524;57;1141071;-81
2021/12/09 14:04:41;;;;;;;93.65;44.48;;;;;;;-1.45;100.00;99934.23;5115044;57;1139305;-80
2021/12/09 14:10:01;;;;;;;117.00;49.40;;;;;;;-1.42;100.00;99939.77;5150413;57;1138961;-80
2021/12/09 14:15:11;;;;;;;115.47;50.10;;;;;;;-1.40;100.00;99936.67;5145072;57;1139996;-80
2021/12/09 14:20:20;;;;;;;116.82;45.80;;;;;;;-1.40;100.00;99938.41;5081893;57;1143208;-82
2021/12/09 14:25:32;;;;;;;134.10;63.23;;;;;;;-1.42;100.00;99943.20;5070878;58;1147437;-80
2021/12/09 14:30:39;;;;;;;113.73;47.07;;;;;;;-1.41;100.00;99938.86;5070636;58;1143367;-80
2021/12/09 14:35:53;;;;;;;105.40;44.87;;;;;;;-1.42;100.00;99935.88;5107437;56;1143218;-80
2021/12/09 14:41:03;;;;;;;108.30;45.27;;;;;;;-1.42;100.00;99925.50;5237461;56;1143018;-81
2021/12/09 14:46:11;;;;;;;99.07;43.23;;;;;;;-1.42;100.00;99930.69;5234335;56;1143299;-80
2021/12/09 14:51:30;;;;;;;96.60;41.10;;;;;;;-1.41;100.00;99936.27;5206636;56;1141120;-81
2021/12/09 14:56:46;;;;;;;102.13;43.63;;;;;;;-1.42;100.00;99935.88;5180072;56;1141422;-81
2021/12/09 15:01:57;;;;;;;95.13;43.43;;;;;;;-1.40;100.00;99948.34;5130520;57;1143168;-80
2021/12/09 15:07:16;;;;;;;829.43;352.37;;;;;;;-1.40;100.00;99940.56;5117691;57;1141547;-80
2021/12/09 15:12:22;;;;;;;201.37;73.60;;;;;;;-1.39;100.00;99946.59;5127354;57;1145496;-80
2021/12/09 15:17:27;;;;;;;136.13;53.03;;;;;;;-1.42;100.00;99943.20;5143064;57;1143366;-80
2021/12/09 15:22:56;;;;;;;100.03;41.20;;;;;;;-1.40;100.00;99941.00;5146063;57;1143528;-80
2021/12/09 15:28:06;;;;;;;131.52;64.15;;;;;;;-1.39;100.00;99957.81;5145155;57;1143369;-80
2021/12/09 15:33:15;;;;;;;94.45;41.23;;;;;;;-1.39;100.00;99939.66;5145921;57;1143228;-80
2021/12/09 15:38:25;;;;;;;87.87;36.13;;;;;;;-1.37;100.00;99934.38;5145519;57;1141183;-80
2021/12/09 15:43:31;;;;;;;95.43;39.07;;;;;;;-1.35;100.00;99919.61;5146001;57;1141091;-80
2021/12/09 15:48:41;;;;;;;116.20;46.47;;;;;;;-1.37;100.00;99922.26;5149520;57;1141096;-80
2021/12/09 15:53:54;;;;;;;124.00;49.50;;;;;;;-1.35;100.00;99932.58;5154890;57;1143294;-80
2021/12/09 15:59:01;;;;;;;112.77;44.13;;;;;;;-1.32;100.00;99927.28;5224087;56;1141181;-80
2021/12/09 16:04:08;;;;;;;105.78;44.15;;;;;;;-1.28;100.00;99928.41;5236539;56;1141136;-81
2021/12/09 16:09:17;;;;;;;84.43;32.73;;;;;;;-1.25;100.00;99922.27;5236895;56;1141173;-80
2021/12/09 16:14:25;;;;;;;95.87;40.30;;;;;;;-1.23;100.00;99923.89;5237242;56;1139044;-81
2021/12/09 16:19:37;;;;;;;146.73;59.60;;;;;;;-1.26;100.00;99917.98;5233581;56;1139094;-80
2021/12/09 16:24:41;;;;;;;203.87;77.67;;;;;;;-1.28;100.00;99912.84;5146032;57;1141125;-80
2021/12/09 16:29:48;;;;;;;155.10;60.60;;;;;;;-1.30;100.00;99907.31;5146042;57;1141169;-79
2021/12/09 16:34:55;;;;;;;151.37;58.47;;;;;;;-1.33;100.00;99897.90;5211832;56;1141269;-79
2021/12/09 16:40:01;;;;;;;232.10;87.77;;;;;;;-1.36;100.00;99901.91;5146231;57;1141139;-77
2021/12/09 16:45:08;;;;;;;116.30;47.50;;;;;;;-1.36;100.00;99904.50;5144771;57;1141106;-79
2021/12/09 16:50:17;;;;;;;462.07;205.60;;;;;;;-1.37;100.00;99910.59;5158037;56;1141213;-79
2021/12/09 16:55:24;;;;;;;229.90;96.67;;;;;;;-1.37;100.00;99905.40;5121558;57;1143441;-78
2021/12/09 17:00:37;;;;;;;160.73;80.73;;;;;;;-1.38;100.00;99918.00;5129349;56;1141094;-79
2021/12/09 17:05:41;;;;;;;146.53;57.80;;;;;;;-1.41;100.00;99923.30;5069356;57;1139089;-79
2021/12/09 17:10:47;;;;;;;135.57;53.73;;;;;;;-1.40;100.00;99923.70;5068162;58;1139124;-79
2021/12/09 17:15:53;;;;;;;183.83;90.93;;;;;;;-1.40;100.00;99932.78;4921366;59;1143111;-79
2021/12/09 17:20:59;;;;;;;138.00;51.00;;;;;;;-1.39;100.00;99933.63;5131720;57;1143213;-78
2021/12/09 17:26:05;;;;;;;130.70;51.70;;;;;;;-1.36;100.00;99934.33;5123867;57;1143450;-78
2021/12/09 17:31:12;;;;;;;176.33;58.20;;;;;;;-1.36;100.00;99924.40;5117642;57;1143470;-78
2021/12/09 17:36:17;;;;;;;122.00;45.03;;;;;;;-1.34;100.00;99918.70;5057190;58;1143258;-80
2021/12/09 17:41:23;;;;;;;150.30;57.23;;;;;;;-1.37;100.00;99912.33;5052982;58;1143295;-81
2021/12/09 17:46:30;;;;;;;142.37;53.83;;;;;;;-1.40;100.00;99900.36;5060130;57;1143274;-80
2021/12/09 17:51:43;;;;;;;146.87;51.97;;;;;;;-1.39;100.00;99896.86;5126214;57;1143275;-81
2021/12/09 17:56:44;;;;;;;105.93;39.07;;;;;;;-1.42;100.00;99895.67;5102323;56;1143039;-81
2021/12/09 18:01:50;;;;;;;105.13;41.07;;;;;;;-1.50;100.00;99882.98;5153968;57;1143273;-81
2021/12/09 18:06:56;;;;;;;133.63;51.23;;;;;;;-1.44;100.00;99887.11;5153185;57;1143224;-81
2021/12/09 18:12:02;;;;;;;128.33;49.37;;;;;;;-1.47;100.00;99889.36;5153407;57;1143236;-81
2021/12/09 18:17:14;;;;;;;131.07;47.53;;;;;;;-1.47;100.00;99882.03;5135237;57;1143246;-81
2021/12/09 18:22:16;;;;;;;115.10;43.63;;;;;;;-1.47;100.00;99883.33;5069148;57;1143234;-81
2021/12/09 18:27:22;;;;;;;122.27;45.93;;;;;;;-1.47;100.00;99879.44;5069556;57;1143175;-80
2021/12/09 18:32:28;;;;;;;167.70;63.57;;;;;;;-1.46;100.00;99874.20;5069689;57;1143280;-82
2021/12/09 18:37:38;;;;;;;144.73;58.17;;;;;;;-1.47;100.00;99883.33;5069639;57;1143227;-81
2021/12/09 18:42:45;;;;;;;138.20;49.03;;;;;;;-1.49;100.00;99875.61;5119566;57;1143296;-81
2021/12/09 18:47:55;;;;;;;115.62;42.58;;;;;;;-1.51;100.00;99868.33;5153386;57;1143600;-80
2021/12/09 18:53:01;;;;;;;75.60;28.17;;;;;;;-1.53;100.00;99858.95;5152708;57;1143284;-80
2021/12/09 18:58:10;;;;;;;86.23;33.70;;;;;;;-1.59;100.00;99844.47;5186508;56;1141644;-81
2021/12/09 19:03:16;;;;;;;88.73;34.77;;;;;;;-1.59;100.00;99834.09;5204401;56;1141061;-82
2021/12/09 19:08:22;;;;;;;71.92;30.75;;;;;;;-1.57;100.00;99819.78;5147223;57;1141389;-81
2021/12/09 19:13:29;;;;;;;98.25;40.43;;;;;;;-1.56;100.00;99811.09;5154614;57;1141399;-81
2021/12/09 19:18:37;;;;;;;104.70;43.37;;;;;;;-1.55;100.00;99807.60;5141675;57;1141207;-82
2021/12/09 19:23:46;;;;;;;107.37;43.13;;;;;;;-1.54;100.00;99795.87;5088298;57;1143468;-81
2021/12/09 19:28:52;;;;;;;119.17;46.67;;;;;;;-1.49;100.00;99803.45;5102012;57;1143169;-81
2021/12/09 19:33:58;;;;;;;124.27;46.63;;;;;;;-1.47;100.00;99805.08;5122197;57;1143187;-80
2021/12/09 19:39:08;;;;;;;111.43;44.10;;;;;;;-1.44;100.00;99810.16;5103628;57;1143206;-82
2021/12/09 19:44:18;;;;;;;104.50;38.80;;;;;;;-1.45;100.00;99808.91;5090283;57;1143195;-81
2021/12/09 19:49:25;;;;;;;129.33;47.07;;;;;;;-1.47;100.00;99811.56;5104282;57;1143232;-81
2021/12/09 19:54:30;;;;;;;121.80;45.93;;;;;;;-1.54;100.00;99815.77;5152568;57;1143315;-80
2021/12/09 19:59:36;;;;;;;107.93;42.17;;;;;;;-1.55;100.00;99824.45;5071190;57;1143488;-82
2021/12/09 20:04:42;;;;;;;112.67;47.20;;;;;;;-1.58;100.00;99824.12;5154174;57;1143176;-82
2021/12/09 20:09:48;;;;;;;122.97;50.93;;;;;;;-1.60;100.00;99827.67;5150718;57;1141157;-83
2021/12/09 20:14:55;;;;;;;114.90;45.07;;;;;;;-1.57;100.00;99834.88;5201071;56;1141282;-82
2021/12/09 20:20:01;;;;;;;132.97;48.10;;;;;;;-1.58;100.00;99822.82;5189746;56;1141370;-82
2021/12/09 20:25:11;;;;;;;126.80;50.20;;;;;;;-1.54;100.00;99824.84;5165345;56;1141168;-84
2021/12/09 20:30:21;;;;;;;124.97;48.53;;;;;;;-1.54;100.00;99830.03;5197872;56;1141149;-78
2021/12/09 20:35:28;;;;;;;120.73;48.87;;;;;;;-1.52;100.00;99821.72;5156807;57;1141369;-80
